createdAt,value
2019-03-21T00:06:10.703Z,3.57
2019-03-21T00:08:39.113Z,3.56
2019-03-21T00:11:46.205Z,3.57
2019-03-21T00:14:54.661Z,3.54
2019-03-21T00:18:03.051Z,3.47
2019-03-21T00:20:31.465Z,3.33
2019-03-21T00:22:59.855Z,3.19
2019-03-21T00:25:28.250Z,3.07
2019-03-21T00:30:49.772Z,3.09
2019-03-21T00:33:18.182Z,3.11
2019-03-21T00:35:46.601Z,3.13
2019-03-21T00:38:14.999Z,3.09
2019-03-21T00:43:36.933Z,3.08
2019-03-21T00:46:24.680Z,3.07
2019-03-21T00:48:53.075Z,2.94
2019-03-21T00:51:21.473Z,2.87
2019-03-21T00:56:24.084Z,2.86
2019-03-21T00:58:54.016Z,2.88
2019-03-21T01:01:22.398Z,2.88
2019-03-21T01:03:50.785Z,2.90
2019-03-21T01:08:53.516Z,2.86
2019-03-21T01:13:55.863Z,2.82
2019-03-21T01:18:58.199Z,2.88
2019-03-21T01:21:26.630Z,2.89
2019-03-21T01:23:55.020Z,2.93
2019-03-21T01:26:23.413Z,2.94
2019-03-21T01:28:51.830Z,2.96
2019-03-21T01:31:20.220Z,2.94
2019-03-21T01:33:48.615Z,2.95
2019-03-21T01:36:56.997Z,2.93
2019-03-21T01:39:25.387Z,2.86
2019-03-21T01:41:53.785Z,2.79
2019-03-21T01:44:22.208Z,2.73
2019-03-21T01:46:50.597Z,2.66
2019-03-21T01:49:18.994Z,2.57
2019-03-21T01:52:27.479Z,2.53
2019-03-21T01:54:55.869Z,2.61
2019-03-21T01:57:24.267Z,2.49
2019-03-21T01:59:52.687Z,2.45
2019-03-21T02:02:21.091Z,2.46
2019-03-21T02:04:49.485Z,2.44
2019-03-21T02:07:18.034Z,2.47
2019-03-21T02:09:46.435Z,2.49
2019-03-21T02:12:14.830Z,2.42
2019-03-21T02:14:51.780Z,2.41
2019-03-21T02:17:25.173Z,2.35
2019-03-21T02:22:27.543Z,2.41
2019-03-21T02:27:29.817Z,2.41
2019-03-21T02:29:58.274Z,2.42
2019-03-21T02:32:26.673Z,2.49
2019-03-21T02:34:55.074Z,2.53
2019-03-21T02:37:23.545Z,2.56
2019-03-21T02:40:11.264Z,2.63
2019-03-21T02:45:55.104Z,2.62
2019-03-21T02:49:03.548Z,2.63
2019-03-21T02:51:31.955Z,2.59
2019-03-21T02:54:00.362Z,2.60
2019-03-21T02:56:28.782Z,2.57
2019-03-21T02:59:37.137Z,2.55
2019-03-21T03:02:24.888Z,2.53
2019-03-21T03:04:53.283Z,2.49
2019-03-21T03:07:21.685Z,2.41
2019-03-21T03:09:50.124Z,2.43
2019-03-21T03:12:18.493Z,2.48
2019-03-21T03:14:46.886Z,2.48
2019-03-21T03:20:01.733Z,2.35
2019-03-21T03:22:30.139Z,2.34
2019-03-21T03:24:58.533Z,2.33
2019-03-21T03:27:26.931Z,2.32
2019-03-21T03:32:29.801Z,2.19
2019-03-21T03:37:32.146Z,2.13
2019-03-21T03:40:00.634Z,2.08
2019-03-21T03:42:29.002Z,2.08
2019-03-21T03:44:57.421Z,2.09
2019-03-21T03:47:25.847Z,2.09
2019-03-21T03:49:54.235Z,2.09
2019-03-21T03:52:22.631Z,2.11
2019-03-21T03:57:44.093Z,2.13
2019-03-21T04:00:52.430Z,2.11
2019-03-21T04:03:20.822Z,2.13
2019-03-21T04:06:29.332Z,2.13
2019-03-21T04:08:57.715Z,2.13
2019-03-21T04:11:26.113Z,2.15
2019-03-21T04:13:54.530Z,2.14
2019-03-21T04:16:22.938Z,2.06
2019-03-21T04:18:51.329Z,2.07
2019-03-21T04:21:32.196Z,2.03
2019-03-21T04:27:08.756Z,1.84
2019-03-21T04:29:37.150Z,1.79
2019-03-21T04:32:05.546Z,1.75
2019-03-21T04:37:08.019Z,1.66
2019-03-21T04:42:10.360Z,1.69
2019-03-21T04:44:38.756Z,1.75
2019-03-21T04:49:41.489Z,1.83
2019-03-21T04:54:43.629Z,1.84
2019-03-21T04:59:45.717Z,1.67
2019-03-21T05:02:14.145Z,1.62
2019-03-21T05:05:01.767Z,1.58
2019-03-21T05:10:44.371Z,1.52
2019-03-21T05:13:12.810Z,1.50
2019-03-21T05:16:00.545Z,1.54
2019-03-21T05:19:08.957Z,1.54
2019-03-21T05:21:37.361Z,1.55
2019-03-21T05:24:05.761Z,1.50
2019-03-21T05:26:34.185Z,1.48
2019-03-21T05:29:02.597Z,1.43
2019-03-21T05:31:50.396Z,1.42
2019-03-21T05:34:18.799Z,1.43
2019-03-21T05:36:47.219Z,1.42
2019-03-21T05:39:15.660Z,1.45
2019-03-21T05:41:44.065Z,1.49
2019-03-21T05:44:52.458Z,1.54
2019-03-21T05:47:20.830Z,1.59
2019-03-21T05:49:49.221Z,1.62
2019-03-21T05:52:17.648Z,1.62
2019-03-21T05:55:06.835Z,1.64
2019-03-21T05:57:35.265Z,1.62
2019-03-21T06:00:43.590Z,1.57
2019-03-21T06:03:52.008Z,1.54
2019-03-21T06:07:00.391Z,1.48
2019-03-21T06:09:31.164Z,1.56
2019-03-21T06:12:39.482Z,1.68
2019-03-21T06:15:47.867Z,1.77
2019-03-21T06:18:56.218Z,1.81
2019-03-21T06:22:04.565Z,1.87
2019-03-21T06:25:11.606Z,1.99
2019-03-21T06:30:13.829Z,2.21
2019-03-21T06:32:42.355Z,2.32
2019-03-21T06:35:50.680Z,2.42
2019-03-21T06:40:53.282Z,2.62
2019-03-21T06:43:21.707Z,2.71
2019-03-21T06:45:50.125Z,2.78
2019-03-21T06:48:37.941Z,2.81
2019-03-21T06:51:06.342Z,2.88
2019-03-21T06:53:34.740Z,2.95
2019-03-21T06:56:03.193Z,3.01
2019-03-21T06:58:31.585Z,3.12
2019-03-21T07:01:39.940Z,3.23
2019-03-21T07:04:08.336Z,3.33
2019-03-21T07:07:07.339Z,3.43
2019-03-21T07:10:06.116Z,3.52
2019-03-21T07:12:34.554Z,3.63
2019-03-21T07:20:45.033Z,3.89
2019-03-21T07:23:13.470Z,4.00
2019-03-21T07:25:41.875Z,4.08
2019-03-21T07:28:10.266Z,4.16
2019-03-21T07:30:38.705Z,4.23
2019-03-21T07:33:07.098Z,4.31
2019-03-21T07:35:35.500Z,4.41
2019-03-21T07:40:56.889Z,4.58
2019-03-21T07:45:59.959Z,4.77
2019-03-21T07:48:28.376Z,4.84
2019-03-21T07:50:56.759Z,4.90
2019-03-21T07:53:25.166Z,4.98
2019-03-21T07:58:27.910Z,5.16
2019-03-21T08:03:30.734Z,5.30
2019-03-21T08:08:33.007Z,5.48
2019-03-21T08:11:01.466Z,5.57
2019-03-21T08:13:29.861Z,5.65
2019-03-21T08:15:58.257Z,5.72
2019-03-21T08:21:00.399Z,5.95
2019-03-21T08:23:28.788Z,6.05
2019-03-21T08:28:33.604Z,6.19
2019-03-21T08:33:55.468Z,6.36
2019-03-21T08:38:57.871Z,6.55
2019-03-21T08:43:59.784Z,6.67
2019-03-21T08:49:02.211Z,6.84
2019-03-21T08:51:30.609Z,6.95
2019-03-21T08:53:59.080Z,7.08
2019-03-21T08:56:27.470Z,7.20
2019-03-21T08:58:55.859Z,7.30
2019-03-21T09:03:58.765Z,7.50
2019-03-21T09:06:27.164Z,7.61
2019-03-21T09:08:55.573Z,7.72
2019-03-21T09:11:23.989Z,7.85
2019-03-21T09:13:52.378Z,7.89
2019-03-21T09:16:40.120Z,7.96
2019-03-21T09:19:08.507Z,8.02
2019-03-21T09:21:36.911Z,8.09
2019-03-21T09:24:05.325Z,8.14
2019-03-21T09:26:33.720Z,8.18
2019-03-21T09:29:02.156Z,8.24
2019-03-21T09:31:30.632Z,8.29
2019-03-21T09:33:59.027Z,8.42
2019-03-21T09:36:27.429Z,8.49
2019-03-21T09:41:29.460Z,8.73
2019-03-21T09:46:31.355Z,8.90
2019-03-21T09:48:59.763Z,9.01
2019-03-21T09:52:08.101Z,9.13
2019-03-21T09:54:36.506Z,9.21
2019-03-21T09:57:04.906Z,9.36
2019-03-21T10:02:07.233Z,9.52
2019-03-21T10:07:09.226Z,9.71
2019-03-21T10:09:37.620Z,9.80
2019-03-21T10:17:35.135Z,10.15
2019-03-21T10:20:43.910Z,10.23
2019-03-21T10:23:31.508Z,10.30
2019-03-21T10:28:33.883Z,10.51
2019-03-21T10:31:02.345Z,10.64
2019-03-21T10:33:30.744Z,10.76
2019-03-21T10:35:59.140Z,10.81
2019-03-21T10:38:27.586Z,10.87
2019-03-21T10:40:55.989Z,10.95
2019-03-21T10:43:24.386Z,11.06
2019-03-21T10:48:26.666Z,11.27
2019-03-21T10:50:55.081Z,11.41
2019-03-21T10:53:23.484Z,11.49
2019-03-21T10:55:51.882Z,11.57
2019-03-21T10:58:20.341Z,11.67
2019-03-21T11:00:48.741Z,11.69
2019-03-21T11:03:17.146Z,11.72
2019-03-21T11:06:25.496Z,11.75
2019-03-21T11:08:53.933Z,11.80
2019-03-21T11:11:22.301Z,11.96
2019-03-21T11:13:50.725Z,12.06
2019-03-21T11:16:19.132Z,12.08
2019-03-21T11:19:06.820Z,12.20
2019-03-21T11:21:35.216Z,12.31
2019-03-21T11:24:22.871Z,12.40
2019-03-21T11:27:10.619Z,12.44
2019-03-21T11:29:39.056Z,12.49
2019-03-21T11:32:07.458Z,12.54
2019-03-21T11:34:35.872Z,12.63
2019-03-21T11:37:04.282Z,12.75
2019-03-21T11:39:32.672Z,12.86
2019-03-21T11:42:01.064Z,12.95
2019-03-21T11:47:03.439Z,13.23
2019-03-21T11:49:31.836Z,13.29
2019-03-21T11:52:00.286Z,13.31
2019-03-21T11:54:28.678Z,13.39
2019-03-21T11:56:57.074Z,13.52
2019-03-21T11:59:36.937Z,13.63
2019-03-21T12:01:55.620Z,13.75
2019-03-21T12:04:24.024Z,13.80
2019-03-21T12:09:26.336Z,13.88
2019-03-21T12:11:54.744Z,13.89
2019-03-21T12:14:23.162Z,13.94
2019-03-21T12:16:51.557Z,13.98
2019-03-21T12:19:19.949Z,14.01
2019-03-21T12:21:48.386Z,14.07
2019-03-21T12:24:16.776Z,14.13
2019-03-21T12:26:45.178Z,14.22
2019-03-21T12:29:13.600Z,14.30
2019-03-21T12:31:41.994Z,14.30
2019-03-21T12:34:10.425Z,14.27
2019-03-21T12:36:38.919Z,14.33
2019-03-21T12:39:47.232Z,14.33
2019-03-21T12:44:49.621Z,14.63
2019-03-21T12:49:53.725Z,14.84
2019-03-21T12:52:22.154Z,14.83
2019-03-21T12:54:50.561Z,14.83
2019-03-21T12:57:18.946Z,14.87
2019-03-21T13:02:31.936Z,14.93
2019-03-21T13:04:51.897Z,15.00
2019-03-21T13:07:20.840Z,15.07
2019-03-21T13:09:50.430Z,15.07
2019-03-21T13:12:18.886Z,15.09
2019-03-21T13:14:47.286Z,15.22
2019-03-21T13:17:15.686Z,15.29
2019-03-21T13:22:17.622Z,15.48
2019-03-21T13:27:20.436Z,15.55
2019-03-21T13:29:48.837Z,15.61
2019-03-21T13:34:50.712Z,15.64
2019-03-21T13:37:19.112Z,15.64
2019-03-21T13:42:21.594Z,15.64
2019-03-21T13:44:50.043Z,15.69
2019-03-21T13:47:18.449Z,15.71
2019-03-21T13:49:46.846Z,15.72
2019-03-21T13:54:48.954Z,15.78
2019-03-21T13:57:17.350Z,15.84
2019-03-21T14:02:19.742Z,15.89
2019-03-21T14:07:21.938Z,15.90
2019-03-21T14:12:24.153Z,15.93
2019-03-21T14:14:52.566Z,16.03
2019-03-21T14:17:22.119Z,16.08
2019-03-21T14:19:51.118Z,16.13
2019-03-21T14:22:21.373Z,16.07
2019-03-21T14:27:25.926Z,16.14
2019-03-21T14:32:27.356Z,16.20
2019-03-21T14:34:55.750Z,16.25
2019-03-21T14:37:24.185Z,16.20
2019-03-21T14:39:52.592Z,16.17
2019-03-21T14:42:20.992Z,16.19
2019-03-21T14:47:36.007Z,16.23
2019-03-21T14:50:00.437Z,16.23
2019-03-21T14:52:48.073Z,16.20
2019-03-21T14:55:16.592Z,16.16
2019-03-21T14:57:44.991Z,16.12
2019-03-21T15:00:53.439Z,16.14
2019-03-21T15:03:21.841Z,16.15
2019-03-21T15:05:50.241Z,16.21
2019-03-21T15:10:52.688Z,16.12
2019-03-21T15:15:55.442Z,15.99
2019-03-21T15:18:43.291Z,16.01
2019-03-21T15:21:11.690Z,16.06
2019-03-21T15:23:41.157Z,16.04
2019-03-21T15:28:44.096Z,16.02
2019-03-21T15:31:12.522Z,15.98
2019-03-21T15:33:40.917Z,15.96
2019-03-21T15:36:21.498Z,15.91
2019-03-21T15:38:49.925Z,15.88
2019-03-21T15:41:18.298Z,15.88
2019-03-21T15:46:20.577Z,15.81
2019-03-21T15:51:22.808Z,15.73
2019-03-21T15:53:56.260Z,15.70
2019-03-21T15:56:21.517Z,15.68
2019-03-21T15:58:49.912Z,15.70
2019-03-21T16:01:18.343Z,15.71
2019-03-21T16:03:46.751Z,15.68
2019-03-21T16:06:15.157Z,15.63
2019-03-21T16:08:43.617Z,15.55
2019-03-21T16:11:12.016Z,15.46
2019-03-21T16:13:40.416Z,15.39
2019-03-21T16:18:43.180Z,15.20
2019-03-21T16:21:11.605Z,15.10
2019-03-21T16:23:40.002Z,15.05
2019-03-21T16:26:27.856Z,15.02
2019-03-21T16:28:56.264Z,14.95
2019-03-21T16:31:24.659Z,14.87
2019-03-21T16:33:53.093Z,14.76
2019-03-21T16:36:21.505Z,14.68
2019-03-21T16:38:49.911Z,14.61
2019-03-21T16:41:18.333Z,14.58
2019-03-21T16:43:46.733Z,14.50
2019-03-21T16:46:15.139Z,14.41
2019-03-21T16:48:43.605Z,14.33
2019-03-21T16:51:12.007Z,14.24
2019-03-21T16:53:40.421Z,14.13
2019-03-21T16:58:42.783Z,13.97
2019-03-21T17:01:11.185Z,13.88
2019-03-21T17:06:13.113Z,13.70
2019-03-21T17:14:09.374Z,13.48
2019-03-21T17:16:37.766Z,13.38
2019-03-21T17:21:39.780Z,13.24
2019-03-21T17:26:42.662Z,13.11
2019-03-21T17:31:44.793Z,12.96
2019-03-21T17:36:47.347Z,12.73
2019-03-21T17:39:15.779Z,12.57
2019-03-21T17:41:44.192Z,12.44
2019-03-21T17:44:12.592Z,12.31
2019-03-21T17:49:15.297Z,12.10
2019-03-21T17:51:46.591Z,12.04
2019-03-21T17:54:13.863Z,11.93
2019-03-21T17:56:42.261Z,11.82
2019-03-21T18:01:45.357Z,11.51
2019-03-21T18:04:13.799Z,11.34
2019-03-21T18:06:42.210Z,11.23
2019-03-21T18:09:10.612Z,11.19
2019-03-21T18:14:13.533Z,11.09
2019-03-21T18:16:41.961Z,11.06
2019-03-21T18:19:10.353Z,10.99
2019-03-21T18:21:38.757Z,10.92
2019-03-21T18:26:40.895Z,10.75
2019-03-21T18:29:09.345Z,10.68
2019-03-21T18:31:37.861Z,10.59
2019-03-21T18:34:06.275Z,10.40
2019-03-21T18:39:09.122Z,10.08
2019-03-21T18:44:11.497Z,9.85
2019-03-21T18:49:13.702Z,9.77
2019-03-21T18:51:42.145Z,9.81
2019-03-21T18:54:10.553Z,9.83
2019-03-21T18:56:38.997Z,9.86
2019-03-21T18:59:26.826Z,9.86
2019-03-21T19:01:58.870Z,9.87
2019-03-21T19:04:25.347Z,9.83
2019-03-21T19:09:27.407Z,9.62
2019-03-21T19:11:55.806Z,9.43
2019-03-21T19:16:58.317Z,9.17
2019-03-21T19:19:26.781Z,9.12
2019-03-21T19:24:29.097Z,9.06
2019-03-21T19:26:57.517Z,9.09
2019-03-21T19:29:25.927Z,9.10
2019-03-21T19:31:54.327Z,9.16
2019-03-21T19:36:57.029Z,9.21
2019-03-21T19:41:59.029Z,9.09
2019-03-21T19:44:27.422Z,8.97
2019-03-21T19:49:29.329Z,8.90
2019-03-21T19:51:57.729Z,8.89
2019-03-21T19:56:59.761Z,8.85
2019-03-21T19:59:28.178Z,8.84
2019-03-21T20:01:56.581Z,8.82
2019-03-21T20:04:24.990Z,8.69
2019-03-21T20:06:53.409Z,8.48
2019-03-21T20:09:21.809Z,8.32
2019-03-21T20:11:50.201Z,8.21
2019-03-21T20:14:18.693Z,8.13
2019-03-21T20:16:47.103Z,8.14
2019-03-21T20:19:15.494Z,8.17
2019-03-21T20:24:17.568Z,8.02
2019-03-21T20:29:20.324Z,7.75
2019-03-21T20:34:22.595Z,7.61
2019-03-21T20:36:51.049Z,7.58
2019-03-21T20:39:19.446Z,7.56
2019-03-21T20:41:47.845Z,7.59
2019-03-21T20:44:16.346Z,7.62
2019-03-21T20:46:44.749Z,7.68
2019-03-21T20:49:13.149Z,7.70
2019-03-21T20:54:16.024Z,7.70
2019-03-21T20:59:18.281Z,7.67
2019-03-21T21:01:46.678Z,7.65
2019-03-21T21:06:48.716Z,7.65
2019-03-21T21:09:57.051Z,7.59
2019-03-21T21:12:25.449Z,7.48
2019-03-21T21:14:53.849Z,7.39
2019-03-21T21:19:56.002Z,7.32
2019-03-21T21:24:58.112Z,7.30
2019-03-21T21:27:26.506Z,7.26
2019-03-21T21:32:28.773Z,7.14
2019-03-21T21:34:57.237Z,7.18
2019-03-21T21:40:53.041Z,7.25
2019-03-21T21:43:21.475Z,7.20
2019-03-21T21:45:49.926Z,7.04
2019-03-21T21:48:18.347Z,6.86
2019-03-21T21:50:46.744Z,6.69
2019-03-21T21:53:15.137Z,6.55
2019-03-21T21:55:43.593Z,6.49
2019-03-21T21:58:12.003Z,6.48
2019-03-21T22:00:40.387Z,6.45
2019-03-21T22:05:42.665Z,6.40
2019-03-21T22:08:11.095Z,6.30
2019-03-21T22:10:39.493Z,6.35
2019-03-21T22:13:07.885Z,6.34
2019-03-21T22:15:36.299Z,6.25
2019-03-21T22:18:04.688Z,6.24
2019-03-21T22:20:33.091Z,6.25
2019-03-21T22:23:01.518Z,6.26
2019-03-21T22:25:29.917Z,6.25
2019-03-21T22:28:17.570Z,6.23
2019-03-21T22:30:45.961Z,6.23
2019-03-21T22:33:14.365Z,6.19
2019-03-21T22:38:16.657Z,6.13
2019-03-21T22:40:45.079Z,6.16
2019-03-21T22:43:13.476Z,6.16
2019-03-21T22:45:41.875Z,6.15
2019-03-21T22:48:29.499Z,6.11
2019-03-21T22:50:57.905Z,6.11
2019-03-21T22:53:26.305Z,6.10
2019-03-21T22:58:32.020Z,6.13
2019-03-21T23:06:28.413Z,5.82
2019-03-21T23:08:56.816Z,5.72
2019-03-21T23:11:44.549Z,5.63
2019-03-21T23:14:12.951Z,5.55
2019-03-21T23:16:41.343Z,5.42
2019-03-21T23:19:09.797Z,5.32
2019-03-21T23:21:38.201Z,5.35
2019-03-21T23:24:26.013Z,5.42
2019-03-21T23:26:54.412Z,5.49
2019-03-21T23:29:22.831Z,5.49
2019-03-21T23:31:51.297Z,5.52
2019-03-21T23:34:19.689Z,5.62
2019-03-21T23:36:48.091Z,5.64
2019-03-21T23:41:50.838Z,5.64
2019-03-21T23:44:19.293Z,5.61
2019-03-21T23:46:47.752Z,5.61
2019-03-21T23:49:16.152Z,5.67
2019-03-21T23:51:44.571Z,5.70
2019-03-21T23:54:12.958Z,5.76
2019-03-21T23:56:41.338Z,5.79
2019-03-21T23:59:09.767Z,5.82
